createdAt,value
2018-07-09T00:06:24.613Z,5.23
2018-07-09T00:08:58.781Z,5.27
2018-07-09T00:11:28.475Z,5.47
2018-07-09T00:13:57.102Z,5.03
2018-07-09T00:16:25.767Z,5.90
2018-07-09T00:18:59.154Z,5.50
2018-07-09T00:21:30.403Z,5.37
2018-07-09T00:23:59.134Z,6.07
2018-07-09T00:26:46.497Z,5.93
2018-07-09T00:29:21.127Z,5.97
2018-07-09T00:31:55.916Z,5.37
2018-07-09T00:34:26.525Z,5.60
2018-07-09T00:37:02.929Z,5.60
2018-07-09T00:39:33.675Z,5.67
2018-07-09T00:42:03.359Z,5.60
2018-07-09T00:44:40.000Z,5.37
2018-07-09T00:47:11.063Z,5.53
2018-07-09T00:49:46.599Z,5.47
2018-07-09T00:52:34.650Z,5.93
2018-07-09T00:55:05.272Z,5.77
2018-07-09T00:57:33.865Z,5.93
2018-07-09T01:00:03.507Z,6.50
2018-07-09T01:02:32.161Z,6.40
2018-07-09T01:05:06.011Z,6.30
2018-07-09T01:07:39.974Z,6.33
2018-07-09T01:10:20.929Z,6.37
2018-07-09T01:12:49.314Z,6.90
2018-07-09T01:15:21.977Z,7.23
2018-07-09T01:18:02.352Z,7.13
2018-07-09T01:20:35.445Z,7.40
2018-07-09T01:23:13.882Z,7.03
2018-07-09T01:25:48.398Z,7.57
2018-07-09T01:28:41.377Z,7.60
2018-07-09T01:31:11.962Z,7.57
2018-07-09T01:33:40.586Z,7.33
2018-07-09T01:36:25.177Z,7.90
2018-07-09T01:38:53.627Z,7.97
2018-07-09T01:41:22.279Z,7.80
2018-07-09T01:43:50.865Z,7.70
2018-07-09T01:46:19.369Z,7.93
2018-07-09T01:48:48.036Z,7.33
2018-07-09T01:51:22.039Z,8.27
2018-07-09T01:56:49.144Z,7.70
2018-07-09T01:59:17.873Z,7.90
2018-07-09T02:01:46.514Z,7.60
2018-07-09T02:04:15.281Z,8.30
2018-07-09T02:06:48.337Z,8.20
2018-07-09T02:09:16.876Z,8.70
2018-07-09T02:14:39.760Z,8.47
2018-07-09T02:17:11.218Z,8.97
2018-07-09T02:19:56.141Z,8.20
2018-07-09T02:22:41.725Z,7.70
2018-07-09T02:25:24.268Z,7.50
2018-07-09T02:27:54.777Z,7.30
2018-07-09T02:30:23.191Z,7.87
2018-07-09T02:32:52.801Z,8.30
2018-07-09T02:35:28.863Z,8.07
2018-07-09T02:37:59.354Z,8.43
2018-07-09T02:40:36.036Z,7.97
2018-07-09T02:43:06.597Z,8.10
2018-07-09T02:45:36.570Z,8.03
2018-07-09T02:48:06.381Z,9.13
2018-07-09T02:50:34.766Z,9.17
2018-07-09T02:53:08.402Z,9.30
2018-07-09T02:55:49.943Z,9.57
2018-07-09T03:01:12.911Z,8.47
2018-07-09T03:03:57.502Z,8.80
2018-07-09T03:06:25.912Z,10.13
2018-07-09T03:08:54.590Z,8.47
2018-07-09T03:11:29.171Z,9.20
2018-07-09T03:14:02.081Z,9.67
2018-07-09T03:16:37.567Z,10.23
2018-07-09T03:19:26.507Z,9.80
2018-07-09T03:21:59.192Z,9.63
2018-07-09T03:24:30.963Z,10.13
2018-07-09T03:27:01.472Z,10.03
2018-07-09T03:29:40.986Z,11.00
2018-07-09T03:32:19.425Z,10.00
2018-07-09T03:34:47.860Z,10.57
2018-07-09T03:37:22.954Z,10.63
2018-07-09T03:39:51.649Z,11.20
2018-07-09T03:42:24.944Z,10.20
2018-07-09T03:44:59.298Z,8.77
2018-07-09T03:47:30.121Z,8.67
2018-07-09T03:50:03.703Z,8.37
2018-07-09T03:52:33.175Z,8.57
2018-07-09T03:55:07.496Z,9.43
2018-07-09T03:57:42.873Z,9.20
2018-07-09T04:00:13.421Z,12.00
2018-07-09T04:02:47.006Z,11.90
2018-07-09T04:05:22.187Z,11.60
2018-07-09T04:07:56.974Z,12.37
2018-07-09T04:10:31.465Z,11.63
2018-07-09T04:13:21.987Z,12.30
2018-07-09T04:15:52.971Z,12.80
2018-07-09T04:18:27.639Z,12.70
2018-07-09T04:20:57.376Z,12.93
2018-07-09T04:23:27.807Z,12.80
2018-07-09T04:25:56.791Z,10.10
2018-07-09T04:28:25.271Z,12.40
2018-07-09T04:30:53.948Z,11.10
2018-07-09T04:33:24.399Z,11.00
2018-07-09T04:35:54.971Z,11.30
2018-07-09T04:38:25.479Z,13.00
2018-07-09T04:40:59.375Z,13.77
2018-07-09T04:43:28.968Z,13.63
2018-07-09T04:45:57.351Z,13.73
2018-07-09T04:51:23.931Z,15.70
2018-07-09T04:53:55.729Z,14.63
2018-07-09T04:56:24.667Z,14.43
2018-07-09T04:58:55.267Z,14.17
2018-07-09T05:01:25.172Z,15.07
2018-07-09T05:03:53.899Z,15.63
2018-07-09T05:06:25.961Z,15.33
2018-07-09T05:08:56.475Z,15.77
2018-07-09T05:11:25.143Z,16.17
2018-07-09T05:13:54.817Z,16.20
2018-07-09T05:16:29.929Z,17.00
2018-07-09T05:18:58.605Z,17.10
2018-07-09T05:21:29.059Z,16.47
2018-07-09T05:23:57.757Z,16.90
2018-07-09T05:26:31.953Z,16.67
2018-07-09T05:29:08.007Z,17.23
2018-07-09T05:31:38.553Z,17.07
2018-07-09T05:34:07.241Z,16.40
2018-07-09T05:36:35.953Z,17.13
2018-07-09T05:39:10.213Z,17.57
2018-07-09T05:41:38.381Z,16.80
2018-07-09T05:44:07.851Z,16.90
2018-07-09T05:46:37.509Z,17.47
2018-07-09T05:49:13.231Z,17.17
2018-07-09T05:51:42.947Z,17.23
2018-07-09T05:54:13.623Z,18.20
2018-07-09T05:56:53.061Z,17.20
2018-07-09T05:59:40.157Z,17.33
2018-07-09T06:02:14.479Z,18.67
2018-07-09T06:04:50.266Z,18.07
2018-07-09T06:07:19.007Z,17.97
2018-07-09T06:09:48.566Z,17.80
2018-07-09T06:12:18.056Z,16.17
2018-07-09T06:14:51.403Z,15.87
2018-07-09T06:20:18.605Z,15.13
2018-07-09T06:23:01.043Z,15.80
2018-07-09T06:25:34.098Z,14.53
2018-07-09T06:28:11.025Z,12.70
2018-07-09T06:30:41.315Z,13.60
2018-07-09T06:33:09.931Z,14.30
2018-07-09T06:35:39.027Z,12.13
2018-07-09T06:38:07.814Z,13.17
2018-07-09T06:40:38.459Z,12.30
2018-07-09T06:43:08.654Z,10.97
2018-07-09T06:45:39.239Z,11.27
2018-07-09T06:48:21.136Z,10.57
2018-07-09T06:50:49.324Z,10.77
2018-07-09T06:53:17.895Z,9.63
2018-07-09T06:55:46.552Z,10.20
2018-07-09T06:58:15.239Z,10.23
2018-07-09T07:00:43.948Z,9.23
2018-07-09T07:03:12.657Z,10.07
2018-07-09T07:05:43.179Z,10.70
2018-07-09T07:08:35.821Z,10.17
2018-07-09T07:13:58.702Z,10.50
2018-07-09T07:16:32.435Z,9.80
2018-07-09T07:19:07.369Z,9.83
2018-07-09T07:21:47.105Z,9.53
2018-07-09T07:24:21.643Z,10.40
2018-07-09T07:27:00.529Z,10.50
2018-07-09T07:32:24.372Z,10.33
2018-07-09T07:34:58.273Z,10.80
2018-07-09T07:37:33.565Z,8.73
2018-07-09T07:40:02.027Z,8.60
2018-07-09T07:42:32.652Z,8.23
2018-07-09T07:45:03.154Z,8.37
2018-07-09T07:47:31.813Z,8.80
2018-07-09T07:50:01.471Z,8.33
2018-07-09T07:52:39.068Z,8.73
2018-07-09T07:55:31.949Z,8.77
2018-07-09T07:58:01.519Z,9.07
2018-07-09T08:00:45.021Z,8.77
2018-07-09T08:03:17.704Z,9.50
2018-07-09T08:06:00.731Z,10.07
2018-07-09T08:08:39.906Z,9.47
2018-07-09T08:11:11.223Z,8.47
2018-07-09T08:13:51.109Z,9.47
2018-07-09T08:16:24.716Z,9.93
2018-07-09T08:19:03.248Z,10.00
2018-07-09T08:21:34.400Z,8.50
2018-07-09T08:24:14.746Z,9.20
2018-07-09T08:26:45.542Z,9.50
2018-07-09T08:29:26.426Z,9.03
2018-07-09T08:32:00.386Z,9.63
2018-07-09T08:34:33.532Z,9.10
2018-07-09T08:37:03.252Z,9.87
2018-07-09T08:39:31.846Z,9.67
2018-07-09T08:42:14.246Z,10.30
2018-07-09T08:47:50.438Z,10.00
2018-07-09T08:50:32.820Z,9.73
2018-07-09T08:53:02.079Z,7.80
2018-07-09T08:55:30.860Z,8.57
2018-07-09T08:57:59.554Z,8.83
2018-07-09T09:00:28.247Z,9.60
2018-07-09T09:03:07.970Z,8.80
2018-07-09T09:05:36.656Z,7.90
2018-07-09T09:08:12.085Z,9.03
2018-07-09T09:10:45.418Z,8.43
2018-07-09T09:13:19.629Z,8.23
2018-07-09T09:15:56.808Z,6.93
2018-07-09T09:18:30.317Z,7.63
2018-07-09T09:20:58.656Z,7.17
2018-07-09T09:23:27.442Z,7.10
2018-07-09T09:25:55.989Z,7.43
2018-07-09T09:28:26.000Z,7.03
2018-07-09T09:33:49.341Z,6.83
2018-07-09T09:36:18.220Z,5.93
2018-07-09T09:38:52.471Z,6.20
2018-07-09T09:41:37.018Z,5.60
2018-07-09T09:44:09.862Z,5.60
2018-07-09T09:46:41.144Z,5.40
2018-07-09T09:49:15.799Z,5.50
2018-07-09T09:51:46.674Z,6.10
2018-07-09T09:54:20.546Z,5.53
2018-07-09T09:57:03.014Z,4.93
2018-07-09T10:02:31.529Z,4.93
2018-07-09T10:05:06.206Z,4.93
2018-07-09T10:07:44.847Z,4.97
2018-07-09T10:13:22.988Z,4.90
2018-07-09T10:15:57.174Z,4.60
2018-07-09T10:18:26.102Z,4.90
2018-07-09T10:20:58.429Z,5.30
2018-07-09T10:23:27.271Z,4.53
2018-07-09T10:26:03.022Z,4.07
2018-07-09T10:28:36.573Z,4.50
2018-07-09T10:31:10.198Z,4.47
2018-07-09T10:33:42.614Z,4.30
2018-07-09T10:36:15.140Z,5.00
2018-07-09T10:38:45.828Z,4.80
2018-07-09T10:41:22.022Z,5.67
2018-07-09T10:43:51.342Z,5.97
2018-07-09T10:46:25.550Z,4.87
2018-07-09T10:49:04.157Z,4.80
2018-07-09T10:51:52.215Z,4.60
2018-07-09T10:54:24.112Z,4.80
2018-07-09T10:57:11.338Z,5.27
2018-07-09T10:59:40.036Z,5.13
2018-07-09T11:02:10.354Z,4.27
2018-07-09T11:04:41.058Z,4.10
2018-07-09T11:07:20.011Z,4.33
2018-07-09T11:09:48.596Z,4.33
2018-07-09T11:12:42.058Z,4.57
2018-07-09T11:15:15.391Z,4.90
2018-07-09T11:17:44.540Z,4.60
2018-07-09T11:20:24.774Z,4.90
2018-07-09T11:23:01.720Z,4.33
2018-07-09T11:25:30.258Z,3.90
2018-07-09T11:30:52.101Z,4.60
2018-07-09T11:33:21.554Z,4.20
2018-07-09T11:35:50.114Z,4.13
2018-07-09T11:38:18.756Z,3.10
2018-07-09T11:40:59.634Z,3.90
2018-07-09T11:43:42.498Z,4.23
2018-07-09T11:46:22.660Z,3.70
2018-07-09T11:48:55.934Z,4.87
2018-07-09T11:51:28.250Z,5.07
2018-07-09T11:54:05.060Z,5.00
2018-07-09T11:56:43.758Z,4.70
2018-07-09T11:59:13.367Z,5.63
2018-07-09T12:01:58.646Z,4.90
2018-07-09T12:04:34.278Z,4.83
2018-07-09T12:07:08.810Z,4.60
2018-07-09T12:09:40.526Z,4.97
2018-07-09T12:12:19.918Z,4.50
2018-07-09T12:15:15.322Z,4.50
2018-07-09T12:17:56.156Z,4.50
2018-07-09T12:20:25.191Z,3.90
2018-07-09T12:25:48.300Z,3.67
2018-07-09T12:28:30.617Z,4.70
2018-07-09T12:31:03.055Z,4.10
2018-07-09T12:33:33.173Z,4.63
2018-07-09T12:36:06.007Z,4.63
2018-07-09T12:41:37.960Z,5.43
2018-07-09T12:44:10.331Z,5.67
2018-07-09T12:46:39.953Z,5.33
2018-07-09T12:49:08.602Z,5.27
2018-07-09T12:51:37.371Z,5.10
2018-07-09T12:54:05.734Z,5.83
2018-07-09T12:56:37.741Z,5.30
2018-07-09T12:59:07.363Z,4.47
2018-07-09T13:01:37.028Z,4.03
2018-07-09T13:04:05.712Z,3.93
2018-07-09T13:06:37.545Z,3.90
2018-07-09T13:09:09.200Z,4.20
2018-07-09T13:11:54.715Z,3.70
2018-07-09T13:17:17.646Z,3.20
2018-07-09T13:19:50.089Z,3.33
2018-07-09T13:22:20.463Z,3.10
2018-07-09T13:24:49.126Z,3.60
2018-07-09T13:27:18.686Z,3.10
2018-07-09T13:29:52.156Z,3.60
2018-07-09T13:32:22.036Z,2.90
2018-07-09T13:34:54.243Z,2.70
2018-07-09T13:37:25.397Z,3.30
2018-07-09T13:39:54.856Z,2.80
2018-07-09T13:42:26.878Z,2.83
2018-07-09T13:44:58.726Z,2.50
2018-07-09T13:47:29.493Z,2.70
2018-07-09T13:49:57.942Z,2.40
2018-07-09T13:52:26.654Z,3.03
2018-07-09T13:55:02.161Z,2.70
2018-07-09T13:57:34.165Z,2.57
2018-07-09T14:00:09.639Z,2.30
2018-07-09T14:02:45.136Z,2.47
2018-07-09T14:05:16.072Z,2.20
2018-07-09T14:07:49.951Z,2.40
2018-07-09T14:10:18.544Z,2.40
2018-07-09T14:12:55.446Z,4.53
2018-07-09T14:15:24.141Z,2.60
2018-07-09T14:17:53.310Z,2.40
2018-07-09T14:20:32.924Z,2.10
2018-07-09T14:23:01.826Z,2.30
2018-07-09T14:25:30.268Z,2.70
2018-07-09T14:28:11.045Z,2.60
2018-07-09T14:30:40.888Z,2.50
2018-07-09T14:33:09.882Z,2.33
2018-07-09T14:35:48.454Z,2.53
2018-07-09T14:38:17.242Z,2.50
2018-07-09T14:40:51.834Z,2.50
2018-07-09T14:43:21.502Z,2.50
2018-07-09T14:46:03.107Z,2.53
2018-07-09T14:48:34.249Z,2.50
2018-07-09T14:51:03.509Z,2.60
2018-07-09T14:53:32.154Z,2.57
2018-07-09T14:56:07.244Z,2.23
2018-07-09T14:58:42.241Z,2.37
2018-07-09T15:01:18.761Z,2.50
2018-07-09T15:03:49.450Z,3.10
2018-07-09T15:06:22.679Z,2.53
2018-07-09T15:08:53.204Z,3.20
2018-07-09T15:11:21.874Z,3.13
2018-07-09T15:13:57.003Z,3.13
2018-07-09T15:16:27.392Z,3.07
2018-07-09T15:18:59.270Z,3.10
2018-07-09T15:21:27.924Z,2.90
2018-07-09T15:23:56.470Z,3.07
2018-07-09T15:26:28.638Z,3.30
2018-07-09T15:29:06.926Z,3.30
2018-07-09T15:31:45.864Z,3.10
2018-07-09T15:34:14.726Z,3.10
2018-07-09T15:36:44.355Z,3.40
2018-07-09T15:39:15.010Z,3.43
2018-07-09T15:41:56.570Z,3.33
2018-07-09T15:44:25.401Z,3.77
2018-07-09T15:46:55.093Z,4.30
2018-07-09T15:49:31.703Z,4.00
2018-07-09T15:52:02.788Z,4.30
2018-07-09T15:54:36.315Z,4.07
2018-07-09T15:57:11.350Z,4.00
2018-07-09T15:59:47.072Z,2.97
2018-07-09T16:02:16.834Z,3.17
2018-07-09T16:04:47.750Z,2.90
2018-07-09T16:07:20.542Z,2.70
2018-07-09T16:09:55.383Z,2.60
2018-07-09T16:12:25.726Z,2.67
2018-07-09T16:15:02.010Z,2.30
2018-07-09T16:17:41.914Z,2.30
2018-07-09T16:20:10.550Z,2.20
2018-07-09T16:22:41.820Z,2.23
2018-07-09T16:25:15.661Z,2.30
2018-07-09T16:27:48.662Z,2.20
2018-07-09T16:30:19.467Z,2.00
2018-07-09T16:32:54.618Z,2.20
2018-07-09T16:35:23.350Z,2.57
2018-07-09T16:37:54.106Z,2.37
2018-07-09T16:40:22.724Z,2.20
2018-07-09T16:42:51.500Z,2.57
2018-07-09T16:45:21.089Z,2.20
2018-07-09T16:47:52.491Z,2.30
2018-07-09T16:50:26.091Z,2.50
2018-07-09T16:53:01.457Z,2.57
2018-07-09T16:55:30.542Z,2.70
2018-07-09T16:57:59.271Z,2.80
2018-07-09T17:00:41.575Z,2.73
2018-07-09T17:03:13.289Z,3.30
2018-07-09T17:05:43.048Z,3.60
2018-07-09T17:08:14.835Z,3.50
2018-07-09T17:10:44.034Z,4.13
2018-07-09T17:13:35.762Z,7.37
2018-07-09T17:16:06.563Z,5.73
2018-07-09T17:18:38.456Z,5.70
2018-07-09T17:21:07.248Z,7.10
2018-07-09T17:23:36.680Z,7.37
2018-07-09T17:26:12.453Z,7.40
2018-07-09T17:28:41.169Z,7.87
2018-07-09T17:31:23.200Z,7.80
2018-07-09T17:33:52.740Z,8.37
2018-07-09T17:36:22.405Z,8.43
2018-07-09T17:39:02.902Z,8.40
2018-07-09T17:44:26.193Z,6.97
2018-07-09T17:46:56.679Z,6.80
2018-07-09T17:49:32.123Z,6.80
2018-07-09T17:52:06.313Z,6.50
2018-07-09T17:54:36.107Z,6.90
2018-07-09T17:57:22.456Z,7.33
2018-07-09T17:59:52.138Z,7.57
2018-07-09T18:02:26.980Z,7.50
2018-07-09T18:04:55.686Z,7.07
2018-07-09T18:07:35.592Z,6.87
2018-07-09T18:10:06.160Z,6.80
2018-07-09T18:12:35.769Z,7.17
2018-07-09T18:15:06.231Z,7.40
2018-07-09T18:17:46.858Z,7.57
2018-07-09T18:20:26.918Z,6.70
2018-07-09T18:22:59.791Z,7.27
2018-07-09T18:25:29.351Z,7.20
2018-07-09T18:28:03.505Z,7.13
2018-07-09T18:30:32.152Z,7.10
2018-07-09T18:33:06.594Z,6.57
2018-07-09T18:35:37.473Z,6.30
2018-07-09T18:38:12.958Z,6.17
2018-07-09T18:40:51.236Z,5.93
2018-07-09T18:43:21.919Z,5.73
2018-07-09T18:45:53.083Z,5.77
2018-07-09T18:48:21.727Z,5.93
2018-07-09T18:50:55.848Z,5.87
2018-07-09T18:53:24.782Z,6.27
2018-07-09T18:55:55.467Z,6.47
2018-07-09T18:58:24.182Z,6.07
2018-07-09T19:00:57.358Z,6.20
2018-07-09T19:03:26.940Z,6.03
2018-07-09T19:07:05.423Z,6.07
2018-07-09T19:09:35.198Z,6.37
2018-07-09T19:12:15.663Z,5.93
2018-07-09T19:14:46.282Z,6.00
2018-07-09T19:17:55.036Z,5.93
2018-07-09T19:20:36.673Z,5.30
2018-07-09T19:23:08.433Z,5.37
2018-07-09T19:25:36.825Z,5.40
2018-07-09T19:28:10.947Z,5.10
2018-07-09T19:30:38.304Z,5.30
2018-07-09T19:33:14.181Z,4.93
2018-07-09T19:35:42.216Z,5.10
2018-07-09T19:38:11.608Z,5.80
2018-07-09T19:40:50.833Z,5.23
2018-07-09T19:43:23.475Z,5.33
2018-07-09T19:46:11.108Z,5.43
2018-07-09T19:48:52.444Z,6.30
2018-07-09T19:51:19.927Z,4.90
2018-07-09T19:53:55.757Z,5.13
2018-07-09T19:56:27.111Z,5.10
2018-07-09T19:58:56.424Z,5.60
2018-07-09T20:01:25.150Z,6.07
2018-07-09T20:03:59.563Z,5.40
2018-07-09T20:06:31.119Z,5.13
2018-07-09T20:09:10.080Z,5.10
2018-07-09T20:11:48.488Z,4.93
2018-07-09T20:14:24.855Z,5.17
2018-07-09T20:17:03.272Z,5.27
2018-07-09T20:22:31.999Z,4.80
2018-07-09T20:25:04.859Z,5.30
2018-07-09T20:27:34.373Z,5.27
2018-07-09T20:30:01.912Z,4.83
2018-07-09T20:32:29.182Z,5.10
2018-07-09T20:35:03.087Z,4.80
2018-07-09T20:37:31.554Z,4.20
2018-07-09T20:40:00.879Z,4.30
2018-07-09T20:42:28.387Z,4.17
2018-07-09T20:44:59.448Z,4.43
2018-07-09T20:47:40.164Z,4.60
2018-07-09T20:50:07.588Z,4.67
2018-07-09T20:52:46.956Z,4.70
2018-07-09T20:55:16.461Z,4.70
2018-07-09T20:57:49.322Z,4.10
2018-07-09T21:00:19.819Z,4.23
2018-07-09T21:02:53.470Z,3.50
2018-07-09T21:05:26.974Z,3.70
2018-07-09T21:07:56.334Z,4.03
2018-07-09T21:10:36.467Z,4.57
2018-07-09T21:13:22.829Z,4.00
2018-07-09T21:15:51.580Z,4.03
2018-07-09T21:18:21.738Z,4.03
2018-07-09T21:20:49.280Z,4.20
2018-07-09T21:23:17.789Z,4.17
2018-07-09T21:25:51.949Z,4.90
2018-07-09T21:28:23.076Z,5.00
2018-07-09T21:30:50.502Z,5.20
2018-07-09T21:33:18.879Z,5.37
2018-07-09T21:35:53.568Z,4.90
2018-07-09T21:38:20.986Z,4.40
2018-07-09T21:40:52.366Z,3.70
2018-07-09T21:43:21.876Z,3.10
2018-07-09T21:45:51.668Z,3.47
2018-07-09T21:48:29.775Z,3.90
2018-07-09T21:50:58.638Z,3.60
2018-07-09T21:53:32.457Z,3.40
2018-07-09T21:59:01.365Z,3.00
2018-07-09T22:01:29.055Z,3.50
2018-07-09T22:03:58.337Z,3.00
2018-07-09T22:06:25.825Z,3.77
2018-07-09T22:08:55.086Z,3.07
2018-07-09T22:11:22.599Z,2.80
2018-07-09T22:13:51.002Z,3.20
2018-07-09T22:16:18.382Z,3.27
2018-07-09T22:18:50.520Z,3.67
2018-07-09T22:24:16.193Z,3.27
2018-07-09T22:26:46.614Z,3.20
2018-07-09T22:29:14.101Z,3.00
2018-07-09T22:31:42.727Z,3.67
2018-07-09T22:34:13.344Z,2.80
2018-07-09T22:36:43.791Z,2.67
2018-07-09T22:39:12.495Z,2.90
2018-07-09T22:41:54.825Z,2.90
2018-07-09T22:44:24.356Z,2.70
2018-07-09T22:47:00.787Z,2.73
2018-07-09T22:49:33.911Z,2.63
2018-07-09T22:52:06.649Z,2.63
2018-07-09T22:54:35.549Z,2.70
2018-07-09T22:57:26.752Z,2.63
2018-07-09T23:00:19.428Z,3.70
2018-07-09T23:03:00.662Z,2.50
2018-07-09T23:05:34.875Z,2.93
2018-07-09T23:08:10.133Z,2.57
2018-07-09T23:13:21.423Z,2.30
2018-07-09T23:16:01.221Z,2.50
2018-07-09T23:18:59.400Z,2.80
2018-07-09T23:22:38.377Z,2.47
2018-07-09T23:25:12.708Z,2.67
2018-07-09T23:27:59.525Z,3.23
2018-07-09T23:30:26.854Z,2.67
2018-07-09T23:32:56.394Z,2.37
2018-07-09T23:35:23.791Z,2.50
2018-07-09T23:37:51.268Z,2.60
2018-07-09T23:40:20.604Z,2.80
2018-07-09T23:42:55.971Z,2.60
2018-07-09T23:45:26.568Z,2.50
2018-07-09T23:47:56.317Z,2.80
2018-07-09T23:50:33.307Z,2.27
2018-07-09T23:53:01.095Z,2.70
2018-07-09T23:55:34.931Z,2.20
